sensor_id;sensor_type;location;lat;lon;timestamp;pressure;altitude;pressure_sealevel;temperature;humidity
43486;BME280;30447;48.742;8.972;2024-01-30T00:00:43;98095.59;;;0.79;90.90
43486;BME280;30447;48.742;8.972;2024-01-30T00:03:09;98094.16;;;1.00;91.01
43486;BME280;30447;48.742;8.972;2024-01-30T00:05:36;98094.94;;;1.14;89.94
43486;BME280;30447;48.742;8.972;2024-01-30T00:08:03;98089.66;;;1.11;90.36
43486;BME280;30447;48.742;8.972;2024-01-30T00:10:30;98088.00;;;0.96;90.60
43486;BME280;30447;48.742;8.972;2024-01-30T00:12:57;98087.09;;;1.11;90.87
43486;BME280;30447;48.742;8.972;2024-01-30T00:15:23;98093.00;;;0.95;91.04
43486;BME280;30447;48.742;8.972;2024-01-30T00:17:50;98090.88;;;1.02;90.17
43486;BME280;30447;48.742;8.972;2024-01-30T00:20:18;98089.16;;;0.86;90.32
43486;BME280;30447;48.742;8.972;2024-01-30T00:22:46;98087.75;;;0.76;90.52
43486;BME280;30447;48.742;8.972;2024-01-30T00:25:13;98084.25;;;0.74;91.31
43486;BME280;30447;48.742;8.972;2024-01-30T00:27:39;98095.84;;;0.99;91.59
43486;BME280;30447;48.742;8.972;2024-01-30T00:30:06;98092.56;;;1.02;93.05
43486;BME280;30447;48.742;8.972;2024-01-30T00:32:33;98097.91;;;1.22;92.35
43486;BME280;30447;48.742;8.972;2024-01-30T00:35:00;98088.66;;;1.24;91.58
43486;BME280;30447;48.742;8.972;2024-01-30T00:37:27;98092.72;;;1.20;91.07
43486;BME280;30447;48.742;8.972;2024-01-30T00:39:53;98096.69;;;1.00;91.63
43486;BME280;30447;48.742;8.972;2024-01-30T00:42:20;98100.66;;;1.10;92.31
43486;BME280;30447;48.742;8.972;2024-01-30T00:44:47;98103.84;;;1.05;92.17
43486;BME280;30447;48.742;8.972;2024-01-30T00:47:14;98095.75;;;0.98;93.00
43486;BME280;30447;48.742;8.972;2024-01-30T00:49:40;98095.47;;;1.08;92.80
43486;BME280;30447;48.742;8.972;2024-01-30T00:52:07;98097.81;;;1.20;92.02
43486;BME280;30447;48.742;8.972;2024-01-30T00:54:33;98095.19;;;1.18;91.87
43486;BME280;30447;48.742;8.972;2024-01-30T00:57:00;98088.84;;;1.27;91.93
43486;BME280;30447;48.742;8.972;2024-01-30T00:59:27;98093.41;;;0.71;94.46
43486;BME280;30447;48.742;8.972;2024-01-30T01:01:53;98091.16;;;1.07;92.96
43486;BME280;30447;48.742;8.972;2024-01-30T01:04:20;98091.97;;;1.06;92.47
43486;BME280;30447;48.742;8.972;2024-01-30T01:06:47;98093.81;;;1.09;92.13
43486;BME280;30447;48.742;8.972;2024-01-30T01:09:14;98090.78;;;1.16;92.33
43486;BME280;30447;48.742;8.972;2024-01-30T01:11:40;98093.59;;;1.21;91.89
43486;BME280;30447;48.742;8.972;2024-01-30T01:14:07;98088.94;;;1.28;92.25
43486;BME280;30447;48.742;8.972;2024-01-30T01:16:34;98098.13;;;0.95;92.98
43486;BME280;30447;48.742;8.972;2024-01-30T01:19:00;98095.22;;;1.03;92.87
43486;BME280;30447;48.742;8.972;2024-01-30T01:21:27;98097.59;;;1.00;92.12
43486;BME280;30447;48.742;8.972;2024-01-30T01:23:54;98102.00;;;1.03;91.84
43486;BME280;30447;48.742;8.972;2024-01-30T01:26:20;98095.69;;;0.81;92.59
43486;BME280;30447;48.742;8.972;2024-01-30T01:28:48;98093.13;;;0.81;92.65
43486;BME280;30447;48.742;8.972;2024-01-30T01:31:14;98093.47;;;0.87;92.33
43486;BME280;30447;48.742;8.972;2024-01-30T01:33:41;98090.22;;;0.90;92.33
43486;BME280;30447;48.742;8.972;2024-01-30T01:36:08;98095.94;;;0.86;92.89
43486;BME280;30447;48.742;8.972;2024-01-30T01:38:34;98094.09;;;0.83;92.44
43486;BME280;30447;48.742;8.972;2024-01-30T01:41:01;98091.09;;;0.90;92.17
43486;BME280;30447;48.742;8.972;2024-01-30T01:43:27;98095.13;;;0.87;91.73
43486;BME280;30447;48.742;8.972;2024-01-30T01:45:54;98090.47;;;0.79;91.98
43486;BME280;30447;48.742;8.972;2024-01-30T01:48:21;98090.63;;;0.98;91.29
43486;BME280;30447;48.742;8.972;2024-01-30T01:50:48;98086.34;;;0.82;91.96
43486;BME280;30447;48.742;8.972;2024-01-30T01:53:15;98087.94;;;0.79;92.23
43486;BME280;30447;48.742;8.972;2024-01-30T01:55:43;98088.63;;;0.77;92.17
43486;BME280;30447;48.742;8.972;2024-01-30T01:58:10;98091.78;;;0.73;92.16
43486;BME280;30447;48.742;8.972;2024-01-30T02:00:39;98084.75;;;0.69;91.68
43486;BME280;30447;48.742;8.972;2024-01-30T02:03:10;98084.84;;;0.70;92.22
43486;BME280;30447;48.742;8.972;2024-01-30T02:05:39;98084.31;;;0.61;92.17
43486;BME280;30447;48.742;8.972;2024-01-30T02:08:08;98082.38;;;0.57;92.15
43486;BME280;30447;48.742;8.972;2024-01-30T02:10:35;98079.38;;;0.49;92.72
43486;BME280;30447;48.742;8.972;2024-01-30T02:13:01;98078.97;;;0.56;93.82
43486;BME280;30447;48.742;8.972;2024-01-30T02:15:28;98084.69;;;0.52;94.23
43486;BME280;30447;48.742;8.972;2024-01-30T02:17:55;98086.25;;;0.65;92.79
43486;BME280;30447;48.742;8.972;2024-01-30T02:20:24;98085.44;;;0.36;93.57
43486;BME280;30447;48.742;8.972;2024-01-30T02:22:54;98095.22;;;0.58;92.56
43486;BME280;30447;48.742;8.972;2024-01-30T02:25:40;98089.69;;;0.50;92.14
43486;BME280;30447;48.742;8.972;2024-01-30T02:28:13;98093.63;;;0.45;93.16
43486;BME280;30447;48.742;8.972;2024-01-30T02:30:42;98094.19;;;0.55;93.35
43486;BME280;30447;48.742;8.972;2024-01-30T02:33:09;98098.81;;;0.62;92.19
43486;BME280;30447;48.742;8.972;2024-01-30T02:35:35;98094.87;;;0.52;92.73
43486;BME280;30447;48.742;8.972;2024-01-30T02:38:02;98098.03;;;0.48;92.54
43486;BME280;30447;48.742;8.972;2024-01-30T02:40:29;98090.38;;;0.48;92.70
43486;BME280;30447;48.742;8.972;2024-01-30T02:42:58;98091.44;;;0.51;92.24
43486;BME280;30447;48.742;8.972;2024-01-30T02:45:26;98087.84;;;0.48;93.07
43486;BME280;30447;48.742;8.972;2024-01-30T02:47:52;98092.75;;;0.45;92.33
43486;BME280;30447;48.742;8.972;2024-01-30T02:50:19;98095.31;;;0.60;92.60
43486;BME280;30447;48.742;8.972;2024-01-30T02:52:46;98091.16;;;0.32;93.45
43486;BME280;30447;48.742;8.972;2024-01-30T02:55:12;98094.50;;;0.16;94.29
43486;BME280;30447;48.742;8.972;2024-01-30T02:57:39;98090.19;;;0.30;91.64
43486;BME280;30447;48.742;8.972;2024-01-30T03:00:06;98089.75;;;0.22;92.35
43486;BME280;30447;48.742;8.972;2024-01-30T03:02:36;98081.75;;;0.31;91.46
43486;BME280;30447;48.742;8.972;2024-01-30T03:05:06;98078.88;;;-0.04;92.53
43486;BME280;30447;48.742;8.972;2024-01-30T03:07:35;98088.63;;;0.03;92.62
43486;BME280;30447;48.742;8.972;2024-01-30T03:10:01;98089.22;;;-0.16;93.24
43486;BME280;30447;48.742;8.972;2024-01-30T03:12:28;98082.50;;;0.15;92.49
43486;BME280;30447;48.742;8.972;2024-01-30T03:14:55;98092.09;;;0.19;91.95
43486;BME280;30447;48.742;8.972;2024-01-30T03:17:21;98091.03;;;0.15;92.20
43486;BME280;30447;48.742;8.972;2024-01-30T03:19:48;98088.47;;;0.00;92.96
43486;BME280;30447;48.742;8.972;2024-01-30T03:22:14;98088.75;;;0.20;91.99
43486;BME280;30447;48.742;8.972;2024-01-30T03:24:41;98093.75;;;-0.25;94.02
43486;BME280;30447;48.742;8.972;2024-01-30T03:27:08;98087.28;;;-0.05;93.25
43486;BME280;30447;48.742;8.972;2024-01-30T03:29:35;98089.19;;;0.12;92.54
43486;BME280;30447;48.742;8.972;2024-01-30T03:32:02;98088.44;;;0.29;92.18
43486;BME280;30447;48.742;8.972;2024-01-30T03:34:30;98089.44;;;0.17;91.95
43486;BME280;30447;48.742;8.972;2024-01-30T03:36:56;98086.53;;;0.11;92.52
43486;BME280;30447;48.742;8.972;2024-01-30T03:39:23;98088.78;;;-0.09;92.97
43486;BME280;30447;48.742;8.972;2024-01-30T03:41:50;98086.88;;;0.02;92.40
43486;BME280;30447;48.742;8.972;2024-01-30T03:44:16;98088.37;;;-0.02;91.59
43486;BME280;30447;48.742;8.972;2024-01-30T03:46:43;98089.84;;;-0.05;91.14
43486;BME280;30447;48.742;8.972;2024-01-30T03:49:10;98083.97;;;-0.04;91.79
43486;BME280;30447;48.742;8.972;2024-01-30T03:51:36;98090.47;;;-0.09;91.96
43486;BME280;30447;48.742;8.972;2024-01-30T03:54:03;98088.06;;;-0.21;92.33
43486;BME280;30447;48.742;8.972;2024-01-30T03:56:29;98085.12;;;-0.28;93.01
43486;BME280;30447;48.742;8.972;2024-01-30T03:58:56;98084.84;;;-0.04;92.23
43486;BME280;30447;48.742;8.972;2024-01-30T04:01:23;98090.22;;;0.01;92.64
43486;BME280;30447;48.742;8.972;2024-01-30T04:03:49;98087.25;;;0.08;91.82
43486;BME280;30447;48.742;8.972;2024-01-30T04:06:16;98085.06;;;-0.14;91.85
43486;BME280;30447;48.742;8.972;2024-01-30T04:08:43;98092.12;;;-0.10;91.52
43486;BME280;30447;48.742;8.972;2024-01-30T04:11:09;98091.66;;;-0.18;92.50
43486;BME280;30447;48.742;8.972;2024-01-30T04:13:36;98086.88;;;-0.27;92.53
43486;BME280;30447;48.742;8.972;2024-01-30T04:16:02;98084.12;;;-0.16;92.49
43486;BME280;30447;48.742;8.972;2024-01-30T04:18:30;98078.03;;;-0.18;92.44
43486;BME280;30447;48.742;8.972;2024-01-30T04:20:56;98083.44;;;-0.27;92.78
43486;BME280;30447;48.742;8.972;2024-01-30T04:23:23;98081.41;;;-0.33;92.38
43486;BME280;30447;48.742;8.972;2024-01-30T04:25:50;98081.34;;;-0.34;92.90
43486;BME280;30447;48.742;8.972;2024-01-30T04:28:16;98080.63;;;-0.32;93.18
43486;BME280;30447;48.742;8.972;2024-01-30T04:30:43;98086.56;;;-0.18;93.04
43486;BME280;30447;48.742;8.972;2024-01-30T04:33:10;98072.78;;;-0.06;92.75
43486;BME280;30447;48.742;8.972;2024-01-30T04:35:37;98077.03;;;-0.07;91.63
43486;BME280;30447;48.742;8.972;2024-01-30T04:38:04;98078.09;;;-0.32;92.40
43486;BME280;30447;48.742;8.972;2024-01-30T04:40:30;98079.06;;;-0.30;93.07
43486;BME280;30447;48.742;8.972;2024-01-30T04:42:57;98078.81;;;-0.19;92.79
43486;BME280;30447;48.742;8.972;2024-01-30T04:45:23;98078.81;;;-0.19;92.01
43486;BME280;30447;48.742;8.972;2024-01-30T04:47:50;98079.63;;;-0.20;91.70
43486;BME280;30447;48.742;8.972;2024-01-30T04:50:16;98082.41;;;-0.31;92.50
43486;BME280;30447;48.742;8.972;2024-01-30T04:52:43;98086.78;;;-0.28;93.05
43486;BME280;30447;48.742;8.972;2024-01-30T04:55:10;98079.87;;;-0.16;93.67
43486;BME280;30447;48.742;8.972;2024-01-30T04:57:36;98084.94;;;-0.02;92.65
43486;BME280;30447;48.742;8.972;2024-01-30T05:00:03;98089.47;;;-0.11;93.33
43486;BME280;30447;48.742;8.972;2024-01-30T05:02:31;98083.06;;;-0.20;93.22
43486;BME280;30447;48.742;8.972;2024-01-30T05:04:58;98088.06;;;-0.21;93.02
43486;BME280;30447;48.742;8.972;2024-01-30T05:07:25;98087.53;;;-0.16;93.30
43486;BME280;30447;48.742;8.972;2024-01-30T05:09:52;98090.63;;;-0.06;92.40
43486;BME280;30447;48.742;8.972;2024-01-30T05:12:18;98093.97;;;-0.07;91.86
43486;BME280;30447;48.742;8.972;2024-01-30T05:14:45;98085.44;;;-0.36;93.04
43486;BME280;30447;48.742;8.972;2024-01-30T05:17:11;98092.97;;;-0.38;94.56
43486;BME280;30447;48.742;8.972;2024-01-30T05:19:39;98094.81;;;-0.22;93.12
43486;BME280;30447;48.742;8.972;2024-01-30T05:22:05;98095.59;;;-0.23;92.69
43486;BME280;30447;48.742;8.972;2024-01-30T05:24:32;98105.66;;;-0.39;93.26
43486;BME280;30447;48.742;8.972;2024-01-30T05:26:59;98097.56;;;-0.32;92.66
43486;BME280;30447;48.742;8.972;2024-01-30T05:29:26;98093.81;;;-0.52;93.22
43486;BME280;30447;48.742;8.972;2024-01-30T05:31:53;98092.59;;;-0.44;93.04
43486;BME280;30447;48.742;8.972;2024-01-30T05:34:20;98101.72;;;-0.48;93.18
43486;BME280;30447;48.742;8.972;2024-01-30T05:36:46;98098.28;;;-0.35;93.03
43486;BME280;30447;48.742;8.972;2024-01-30T05:39:13;98098.16;;;-0.36;92.23
43486;BME280;30447;48.742;8.972;2024-01-30T05:41:39;98105.41;;;-0.29;92.77
43486;BME280;30447;48.742;8.972;2024-01-30T05:44:06;98090.13;;;-0.29;92.21
43486;BME280;30447;48.742;8.972;2024-01-30T05:46:35;98108.09;;;-0.41;92.89
43486;BME280;30447;48.742;8.972;2024-01-30T05:49:01;98104.19;;;-0.49;93.21
43486;BME280;30447;48.742;8.972;2024-01-30T05:51:28;98110.06;;;-0.50;93.35
43486;BME280;30447;48.742;8.972;2024-01-30T05:53:55;98113.19;;;-0.55;93.61
43486;BME280;30447;48.742;8.972;2024-01-30T05:56:22;98108.09;;;-0.41;92.53
43486;BME280;30447;48.742;8.972;2024-01-30T05:58:49;98110.44;;;-0.44;92.77
43486;BME280;30447;48.742;8.972;2024-01-30T06:01:16;98112.41;;;-0.54;92.67
43486;BME280;30447;48.742;8.972;2024-01-30T06:03:43;98114.25;;;-0.51;92.51
43486;BME280;30447;48.742;8.972;2024-01-30T06:06:09;98110.06;;;-0.50;92.29
43486;BME280;30447;48.742;8.972;2024-01-30T06:08:36;98111.66;;;-0.66;91.99
43486;BME280;30447;48.742;8.972;2024-01-30T06:11:03;98107.12;;;-0.57;92.01
43486;BME280;30447;48.742;8.972;2024-01-30T06:13:29;98109.59;;;-0.72;91.94
43486;BME280;30447;48.742;8.972;2024-01-30T06:15:58;98113.88;;;-0.71;92.41
43486;BME280;30447;48.742;8.972;2024-01-30T06:18:24;98114.56;;;-0.46;92.01
43486;BME280;30447;48.742;8.972;2024-01-30T06:20:52;98117.31;;;-0.57;93.57
43486;BME280;30447;48.742;8.972;2024-01-30T06:23:19;98119.28;;;-0.66;93.15
43486;BME280;30447;48.742;8.972;2024-01-30T06:25:45;98122.31;;;-0.72;93.27
43486;BME280;30447;48.742;8.972;2024-01-30T06:28:12;98120.94;;;-0.67;94.07
43486;BME280;30447;48.742;8.972;2024-01-30T06:30:39;98118.59;;;-0.63;93.32
43486;BME280;30447;48.742;8.972;2024-01-30T06:33:05;98118.13;;;-0.71;93.45
43486;BME280;30447;48.742;8.972;2024-01-30T06:35:32;98114.88;;;-0.69;93.35
43486;BME280;30447;48.742;8.972;2024-01-30T06:37:58;98115.38;;;-0.61;93.29
43486;BME280;30447;48.742;8.972;2024-01-30T06:40:25;98118.59;;;-0.90;93.78
43486;BME280;30447;48.742;8.972;2024-01-30T06:42:52;98114.47;;;-0.61;93.22
43486;BME280;30447;48.742;8.972;2024-01-30T06:45:18;98118.28;;;-0.68;93.46
43486;BME280;30447;48.742;8.972;2024-01-30T06:47:45;98123.09;;;-0.86;93.89
43486;BME280;30447;48.742;8.972;2024-01-30T06:50:11;98118.87;;;-0.59;92.30
43486;BME280;30447;48.742;8.972;2024-01-30T06:52:38;98119.56;;;-0.61;92.38
43486;BME280;30447;48.742;8.972;2024-01-30T06:55:05;98117.75;;;-0.77;93.57
43486;BME280;30447;48.742;8.972;2024-01-30T06:57:32;98125.44;;;-0.62;92.80
43486;BME280;30447;48.742;8.972;2024-01-30T06:59:58;98128.00;;;-0.62;92.43
43486;BME280;30447;48.742;8.972;2024-01-30T07:02:25;98127.50;;;-0.70;92.50
43486;BME280;30447;48.742;8.972;2024-01-30T07:04:51;98128.00;;;-0.62;92.59
43486;BME280;30447;48.742;8.972;2024-01-30T07:07:18;98129.38;;;-0.54;92.18
43486;BME280;30447;48.742;8.972;2024-01-30T07:09:45;98128.84;;;-0.48;90.37
43486;BME280;30447;48.742;8.972;2024-01-30T07:12:11;98134.94;;;-0.60;90.82
43486;BME280;30447;48.742;8.972;2024-01-30T07:14:38;98136.31;;;-0.65;91.82
43486;BME280;30447;48.742;8.972;2024-01-30T07:17:05;98133.97;;;-0.62;92.18
43486;BME280;30447;48.742;8.972;2024-01-30T07:19:32;98130.06;;;-0.57;92.03
43486;BME280;30447;48.742;8.972;2024-01-30T07:21:59;98133.87;;;-0.63;92.46
43486;BME280;30447;48.742;8.972;2024-01-30T07:24:26;98128.69;;;-0.51;91.00
43486;BME280;30447;48.742;8.972;2024-01-30T07:26:53;98127.63;;;-0.55;91.72
43486;BME280;30447;48.742;8.972;2024-01-30T07:29:19;98137.50;;;-0.46;91.58
43486;BME280;30447;48.742;8.972;2024-01-30T07:31:46;98127.69;;;-0.40;91.73
43486;BME280;30447;48.742;8.972;2024-01-30T07:34:13;98126.03;;;-0.39;91.93
43486;BME280;30447;48.742;8.972;2024-01-30T07:36:39;98134.03;;;-0.33;92.35
43486;BME280;30447;48.742;8.972;2024-01-30T07:39:06;98128.81;;;-0.21;92.78
43486;BME280;30447;48.742;8.972;2024-01-30T07:41:33;98129.06;;;-0.03;92.27
43486;BME280;30447;48.742;8.972;2024-01-30T07:43:59;98128.00;;;-0.07;91.55
43486;BME280;30447;48.742;8.972;2024-01-30T07:46:26;98142.41;;;-0.07;92.96
43486;BME280;30447;48.742;8.972;2024-01-30T07:48:52;98139.66;;;-0.10;93.40
43486;BME280;30447;48.742;8.972;2024-01-30T07:51:19;98144.09;;;-0.21;93.30
43486;BME280;30447;48.742;8.972;2024-01-30T07:53:46;98138.22;;;0.08;93.28
43486;BME280;30447;48.742;8.972;2024-01-30T07:56:12;98137.38;;;0.08;92.67
43486;BME280;30447;48.742;8.972;2024-01-30T07:58:39;98137.72;;;0.14;93.21
43486;BME280;30447;48.742;8.972;2024-01-30T08:01:06;98142.00;;;0.00;93.97
43486;BME280;30447;48.742;8.972;2024-01-30T08:03:33;98133.13;;;0.08;94.48
43486;BME280;30447;48.742;8.972;2024-01-30T08:06:00;98141.28;;;0.31;93.51
43486;BME280;30447;48.742;8.972;2024-01-30T08:08:27;98141.37;;;0.33;94.20
43486;BME280;30447;48.742;8.972;2024-01-30T08:10:54;98139.19;;;0.39;94.64
43486;BME280;30447;48.742;8.972;2024-01-30T08:13:21;98135.94;;;0.42;94.59
43486;BME280;30447;48.742;8.972;2024-01-30T08:15:47;98143.19;;;0.64;94.07
43486;BME280;30447;48.742;8.972;2024-01-30T08:18:14;98138.16;;;0.50;94.83
43486;BME280;30447;48.742;8.972;2024-01-30T08:20:41;98137.38;;;0.67;95.29
43486;BME280;30447;48.742;8.972;2024-01-30T08:23:07;98142.06;;;0.89;95.00
43486;BME280;30447;48.742;8.972;2024-01-30T08:25:34;98137.03;;;0.90;95.36
43486;BME280;30447;48.742;8.972;2024-01-30T08:28:00;98135.28;;;1.04;95.22
43486;BME280;30447;48.742;8.972;2024-01-30T08:30:27;98144.06;;;0.79;97.18
43486;BME280;30447;48.742;8.972;2024-01-30T08:32:54;98135.41;;;1.08;96.44
43486;BME280;30447;48.742;8.972;2024-01-30T08:35:20;98136.03;;;1.18;96.52
43486;BME280;30447;48.742;8.972;2024-01-30T08:37:47;98133.66;;;1.22;97.22
43486;BME280;30447;48.742;8.972;2024-01-30T08:40:13;98142.34;;;1.40;95.98
43486;BME280;30447;48.742;8.972;2024-01-30T08:42:40;98139.97;;;1.43;95.99
43486;BME280;30447;48.742;8.972;2024-01-30T08:45:07;98131.41;;;1.75;95.11
43486;BME280;30447;48.742;8.972;2024-01-30T08:47:35;98134.63;;;2.04;94.17
43486;BME280;30447;48.742;8.972;2024-01-30T08:50:02;98139.69;;;2.19;93.61
43486;BME280;30447;48.742;8.972;2024-01-30T08:52:28;98136.78;;;2.12;94.06
43486;BME280;30447;48.742;8.972;2024-01-30T08:54:55;98141.41;;;2.03;95.46
43486;BME280;30447;48.742;8.972;2024-01-30T08:57:22;98137.84;;;2.16;94.93
43486;BME280;30447;48.742;8.972;2024-01-30T08:59:48;98137.41;;;2.58;93.61
43486;BME280;30447;48.742;8.972;2024-01-30T09:02:15;98136.97;;;2.84;93.15
43486;BME280;30447;48.742;8.972;2024-01-30T09:04:44;98136.78;;;2.97;91.85
43486;BME280;30447;48.742;8.972;2024-01-30T09:07:10;98146.06;;;3.13;91.35
43486;BME280;30447;48.742;8.972;2024-01-30T09:09:40;98138.09;;;3.25;90.69
43486;BME280;30447;48.742;8.972;2024-01-30T09:12:07;98146.12;;;3.32;90.29
43486;BME280;30447;48.742;8.972;2024-01-30T09:14:36;98142.72;;;3.51;90.30
43486;BME280;30447;48.742;8.972;2024-01-30T09:17:04;98144.00;;;3.79;90.12
43486;BME280;30447;48.742;8.972;2024-01-30T09:19:31;98147.41;;;3.97;89.74
43486;BME280;30447;48.742;8.972;2024-01-30T09:21:57;98144.28;;;4.23;89.71
43486;BME280;30447;48.742;8.972;2024-01-30T09:24:25;98143.94;;;4.35;89.68
43486;BME280;30447;48.742;8.972;2024-01-30T09:26:52;98150.16;;;4.40;88.90
43486;BME280;30447;48.742;8.972;2024-01-30T09:29:19;98149.06;;;4.55;87.36
43486;BME280;30447;48.742;8.972;2024-01-30T09:31:46;98145.47;;;4.92;85.77
43486;BME280;30447;48.742;8.972;2024-01-30T09:34:13;98145.72;;;4.98;85.77
43486;BME280;30447;48.742;8.972;2024-01-30T09:36:40;98146.94;;;5.07;85.93
43486;BME280;30447;48.742;8.972;2024-01-30T09:39:06;98148.22;;;5.18;86.05
43486;BME280;30447;48.742;8.972;2024-01-30T09:41:44;98149.91;;;5.39;84.97
43486;BME280;30447;48.742;8.972;2024-01-30T09:44:20;98150.34;;;5.50;84.37
43486;BME280;30447;48.742;8.972;2024-01-30T09:46:47;98150.50;;;5.54;84.07
43486;BME280;30447;48.742;8.972;2024-01-30T09:49:15;98145.25;;;5.73;82.82
43486;BME280;30447;48.742;8.972;2024-01-30T09:51:42;98157.63;;;5.83;82.56
43486;BME280;30447;48.742;8.972;2024-01-30T09:54:10;98147.28;;;6.04;81.44
43486;BME280;30447;48.742;8.972;2024-01-30T09:56:41;98159.44;;;6.08;80.87
43486;BME280;30447;48.742;8.972;2024-01-30T09:59:08;98158.69;;;6.11;80.56
43486;BME280;30447;48.742;8.972;2024-01-30T10:01:36;98146.09;;;6.19;80.65
43486;BME280;30447;48.742;8.972;2024-01-30T10:04:04;98152.41;;;6.27;80.82
43486;BME280;30447;48.742;8.972;2024-01-30T10:06:31;98153.66;;;6.39;81.03
43486;BME280;30447;48.742;8.972;2024-01-30T10:08:57;98152.06;;;6.42;80.85
43486;BME280;30447;48.742;8.972;2024-01-30T10:11:24;98151.63;;;6.53;80.64
43486;BME280;30447;48.742;8.972;2024-01-30T10:13:51;98146.12;;;6.43;80.77
43486;BME280;30447;48.742;8.972;2024-01-30T10:16:17;98153.84;;;6.68;80.91
43486;BME280;30447;48.742;8.972;2024-01-30T10:18:44;98161.75;;;6.74;81.16
43486;BME280;30447;48.742;8.972;2024-01-30T10:21:11;98146.12;;;6.94;81.07
43486;BME280;30447;48.742;8.972;2024-01-30T10:23:38;98148.81;;;6.97;80.56
43486;BME280;30447;48.742;8.972;2024-01-30T10:26:04;98145.78;;;6.83;80.14
43486;BME280;30447;48.742;8.972;2024-01-30T10:28:31;98143.06;;;7.06;80.77
43486;BME280;30447;48.742;8.972;2024-01-30T10:31:00;98137.91;;;7.06;78.58
43486;BME280;30447;48.742;8.972;2024-01-30T10:33:28;98137.16;;;7.08;78.42
43486;BME280;30447;48.742;8.972;2024-01-30T10:36:00;98136.91;;;7.28;77.31
43486;BME280;30447;48.742;8.972;2024-01-30T10:38:29;98140.63;;;7.36;77.54
43486;BME280;30447;48.742;8.972;2024-01-30T10:40:59;98130.69;;;7.49;77.65
43486;BME280;30447;48.742;8.972;2024-01-30T10:43:32;98130.31;;;7.64;77.21
43486;BME280;30447;48.742;8.972;2024-01-30T10:46:10;98129.81;;;7.76;76.82
43486;BME280;30447;48.742;8.972;2024-01-30T10:48:51;98123.88;;;7.80;76.51
43486;BME280;30447;48.742;8.972;2024-01-30T10:51:26;98121.00;;;8.00;76.28
43486;BME280;30447;48.742;8.972;2024-01-30T10:53:55;98120.22;;;8.01;76.11
43486;BME280;30447;48.742;8.972;2024-01-30T10:56:23;98116.97;;;8.08;75.71
43486;BME280;30447;48.742;8.972;2024-01-30T10:58:52;98118.75;;;8.11;75.49
43486;BME280;30447;48.742;8.972;2024-01-30T11:01:22;98116.75;;;8.32;74.76
43486;BME280;30447;48.742;8.972;2024-01-30T11:03:53;98112.59;;;8.36;74.83
43486;BME280;30447;48.742;8.972;2024-01-30T11:06:22;98118.59;;;8.37;76.02
43486;BME280;30447;48.742;8.972;2024-01-30T11:09:03;98110.37;;;8.50;75.26
43486;BME280;30447;48.742;8.972;2024-01-30T11:11:56;98118.44;;;8.61;74.87
43486;BME280;30447;48.742;8.972;2024-01-30T11:14:29;98110.91;;;8.69;76.46
43486;BME280;30447;48.742;8.972;2024-01-30T11:16:58;98120.44;;;8.73;75.66
43486;BME280;30447;48.742;8.972;2024-01-30T11:19:26;98117.13;;;8.77;75.53
43486;BME280;30447;48.742;8.972;2024-01-30T11:21:54;98110.31;;;8.81;75.97
43486;BME280;30447;48.742;8.972;2024-01-30T11:24:20;98115.62;;;8.85;75.76
43486;BME280;30447;48.742;8.972;2024-01-30T11:26:56;98107.88;;;8.85;75.66
43486;BME280;30447;48.742;8.972;2024-01-30T11:29:30;98116.75;;;8.97;75.42
43486;BME280;30447;48.742;8.972;2024-01-30T11:31:58;98115.91;;;8.96;75.48
43486;BME280;30447;48.742;8.972;2024-01-30T11:34:25;98115.84;;;8.95;76.50
43486;BME280;30447;48.742;8.972;2024-01-30T11:36:59;98104.25;;;9.14;75.07
43486;BME280;30447;48.742;8.972;2024-01-30T11:39:36;98105.38;;;9.25;74.81
43486;BME280;30447;48.742;8.972;2024-01-30T11:42:03;98100.38;;;9.32;74.45
43486;BME280;30447;48.742;8.972;2024-01-30T11:44:31;98098.09;;;9.46;74.33
43486;BME280;30447;48.742;8.972;2024-01-30T11:46:58;98103.47;;;9.55;74.03
43486;BME280;30447;48.742;8.972;2024-01-30T11:49:25;98101.78;;;9.57;73.90
43486;BME280;30447;48.742;8.972;2024-01-30T11:51:52;98099.19;;;9.57;73.74
43486;BME280;30447;48.742;8.972;2024-01-30T11:54:19;98094.66;;;9.47;74.38
43486;BME280;30447;48.742;8.972;2024-01-30T11:56:46;98078.66;;;9.65;73.92
43486;BME280;30447;48.742;8.972;2024-01-30T11:59:13;98090.59;;;9.57;74.87
43486;BME280;30447;48.742;8.972;2024-01-30T12:01:40;98077.00;;;9.67;74.83
43486;BME280;30447;48.742;8.972;2024-01-30T12:04:07;98077.28;;;9.81;74.44
43486;BME280;30447;48.742;8.972;2024-01-30T12:06:35;98079.34;;;9.98;73.22
43486;BME280;30447;48.742;8.972;2024-01-30T12:09:03;98076.88;;;10.04;73.60
43486;BME280;30447;48.742;8.972;2024-01-30T12:11:49;98064.81;;;10.04;73.37
43486;BME280;30447;48.742;8.972;2024-01-30T12:14:19;98064.97;;;10.12;73.10
43486;BME280;30447;48.742;8.972;2024-01-30T12:16:49;98065.13;;;10.20;73.64
43486;BME280;30447;48.742;8.972;2024-01-30T12:19:24;98064.28;;;10.23;73.21
43486;BME280;30447;48.742;8.972;2024-01-30T12:21:58;98058.25;;;10.24;73.96
43486;BME280;30447;48.742;8.972;2024-01-30T12:24:29;98043.78;;;10.34;73.97
43486;BME280;30447;48.742;8.972;2024-01-30T12:26:59;98054.22;;;10.38;73.89
43486;BME280;30447;48.742;8.972;2024-01-30T12:29:26;98051.81;;;10.44;73.97
43486;BME280;30447;48.742;8.972;2024-01-30T12:31:53;98047.22;;;10.32;75.45
43486;BME280;30447;48.742;8.972;2024-01-30T12:34:21;98052.28;;;10.26;74.91
43486;BME280;30447;48.742;8.972;2024-01-30T12:36:48;98053.59;;;10.50;72.88
43486;BME280;30447;48.742;8.972;2024-01-30T12:39:17;98055.47;;;10.59;72.98
43486;BME280;30447;48.742;8.972;2024-01-30T12:41:44;98056.59;;;10.72;72.30
43486;BME280;30447;48.742;8.972;2024-01-30T12:44:13;98047.38;;;10.90;72.40
43486;BME280;30447;48.742;8.972;2024-01-30T12:46:40;98056.81;;;10.86;73.19
43486;BME280;30447;48.742;8.972;2024-01-30T12:49:07;98053.38;;;10.87;72.96
43486;BME280;30447;48.742;8.972;2024-01-30T12:51:34;98042.09;;;10.83;72.85
43486;BME280;30447;48.742;8.972;2024-01-30T12:54:05;98049.16;;;10.94;73.59
43486;BME280;30447;48.742;8.972;2024-01-30T12:56:32;98046.75;;;11.05;73.44
43486;BME280;30447;48.742;8.972;2024-01-30T12:58:59;98045.81;;;11.01;71.65
43486;BME280;30447;48.742;8.972;2024-01-30T13:01:26;98049.53;;;11.17;72.14
43486;BME280;30447;48.742;8.972;2024-01-30T13:03:53;98040.94;;;11.21;71.42
43486;BME280;30447;48.742;8.972;2024-01-30T13:06:19;98047.72;;;11.13;71.76
43486;BME280;30447;48.742;8.972;2024-01-30T13:08:46;98045.38;;;11.27;71.01